sensor_id;sensor_type;location;lat;lon;timestamp;P1;durP1;ratioP1;P2;durP2;ratioP2
52586;SDS011;38480;52.724;6.436;2023-05-10T00:00:26;71.00;;;30.27;;
52586;SDS011;38480;52.724;6.436;2023-05-10T00:02:52;79.87;;;30.40;;
52586;SDS011;38480;52.724;6.436;2023-05-10T00:05:18;95.53;;;32.87;;
52586;SDS011;38480;52.724;6.436;2023-05-10T00:07:44;95.60;;;34.20;;
52586;SDS011;38480;52.724;6.436;2023-05-10T00:10:10;93.60;;;34.13;;
52586;SDS011;38480;52.724;6.436;2023-05-10T00:12:37;60.10;;;27.97;;
52586;SDS011;38480;52.724;6.436;2023-05-10T00:15:03;56.30;;;27.53;;
52586;SDS011;38480;52.724;6.436;2023-05-10T00:17:29;57.87;;;25.83;;
52586;SDS011;38480;52.724;6.436;2023-05-10T00:19:55;54.80;;;26.77;;
52586;SDS011;38480;52.724;6.436;2023-05-10T00:22:21;85.27;;;31.43;;
52586;SDS011;38480;52.724;6.436;2023-05-10T00:24:47;54.30;;;27.33;;
52586;SDS011;38480;52.724;6.436;2023-05-10T00:27:13;54.60;;;26.67;;
52586;SDS011;38480;52.724;6.436;2023-05-10T00:29:39;60.67;;;27.00;;
52586;SDS011;38480;52.724;6.436;2023-05-10T00:32:05;75.50;;;29.17;;
52586;SDS011;38480;52.724;6.436;2023-05-10T00:34:31;57.83;;;25.30;;
52586;SDS011;38480;52.724;6.436;2023-05-10T00:36:57;82.57;;;29.67;;
52586;SDS011;38480;52.724;6.436;2023-05-10T00:39:23;70.10;;;28.33;;
52586;SDS011;38480;52.724;6.436;2023-05-10T00:41:51;77.67;;;28.53;;
52586;SDS011;38480;52.724;6.436;2023-05-10T00:44:17;48.17;;;23.83;;
52586;SDS011;38480;52.724;6.436;2023-05-10T00:46:43;66.73;;;27.07;;
52586;SDS011;38480;52.724;6.436;2023-05-10T00:49:10;89.90;;;30.23;;
52586;SDS011;38480;52.724;6.436;2023-05-10T00:51:36;56.80;;;25.50;;
52586;SDS011;38480;52.724;6.436;2023-05-10T00:54:02;67.00;;;26.93;;
52586;SDS011;38480;52.724;6.436;2023-05-10T00:56:28;44.57;;;21.47;;
52586;SDS011;38480;52.724;6.436;2023-05-10T00:58:55;71.20;;;25.70;;
52586;SDS011;38480;52.724;6.436;2023-05-10T01:01:21;67.93;;;25.03;;
52586;SDS011;38480;52.724;6.436;2023-05-10T01:03:48;47.37;;;22.17;;
52586;SDS011;38480;52.724;6.436;2023-05-10T01:06:14;52.40;;;23.73;;
52586;SDS011;38480;52.724;6.436;2023-05-10T01:08:40;48.90;;;22.03;;
52586;SDS011;38480;52.724;6.436;2023-05-10T01:11:06;55.43;;;22.37;;
52586;SDS011;38480;52.724;6.436;2023-05-10T01:15:58;52.57;;;22.03;;
52586;SDS011;38480;52.724;6.436;2023-05-10T01:18:27;36.67;;;18.47;;
52586;SDS011;38480;52.724;6.436;2023-05-10T01:20:57;36.10;;;18.50;;
52586;SDS011;38480;52.724;6.436;2023-05-10T01:23:41;27.25;;;15.45;;
52586;SDS011;38480;52.724;6.436;2023-05-10T01:31:31;51.00;;;19.47;;
52586;SDS011;38480;52.724;6.436;2023-05-10T01:34:07;24.63;;;13.57;;
52586;SDS011;38480;52.724;6.436;2023-05-10T01:36:37;28.93;;;15.47;;
52586;SDS011;38480;52.724;6.436;2023-05-10T01:42:17;41.70;;;17.20;;
52586;SDS011;38480;52.724;6.436;2023-05-10T01:46:53;37.50;;;16.37;;
52586;SDS011;38480;52.724;6.436;2023-05-10T01:49:26;28.00;;;14.63;;
52586;SDS011;38480;52.724;6.436;2023-05-10T01:51:53;40.50;;;17.30;;
52586;SDS011;38480;52.724;6.436;2023-05-10T01:54:20;41.53;;;17.07;;
52586;SDS011;38480;52.724;6.436;2023-05-10T01:56:52;41.63;;;17.30;;
52586;SDS011;38480;52.724;6.436;2023-05-10T02:01:46;47.13;;;18.00;;
52586;SDS011;38480;52.724;6.436;2023-05-10T02:04:14;36.50;;;16.27;;
52586;SDS011;38480;52.724;6.436;2023-05-10T02:06:41;36.57;;;16.13;;
52586;SDS011;38480;52.724;6.436;2023-05-10T02:09:08;28.57;;;14.80;;
52586;SDS011;38480;52.724;6.436;2023-05-10T02:11:34;30.90;;;14.90;;
52586;SDS011;38480;52.724;6.436;2023-05-10T02:14:02;39.63;;;16.57;;
52586;SDS011;38480;52.724;6.436;2023-05-10T02:16:29;38.67;;;15.60;;
52586;SDS011;38480;52.724;6.436;2023-05-10T02:18:55;41.57;;;16.77;;
52586;SDS011;38480;52.724;6.436;2023-05-10T02:21:23;42.40;;;17.53;;
52586;SDS011;38480;52.724;6.436;2023-05-10T02:23:50;38.27;;;15.37;;
52586;SDS011;38480;52.724;6.436;2023-05-10T02:26:16;40.77;;;17.63;;
52586;SDS011;38480;52.724;6.436;2023-05-10T02:28:44;48.87;;;18.53;;
52586;SDS011;38480;52.724;6.436;2023-05-10T02:31:10;34.53;;;15.27;;
52586;SDS011;38480;52.724;6.436;2023-05-10T02:33:37;33.30;;;15.57;;
52586;SDS011;38480;52.724;6.436;2023-05-10T02:36:04;31.47;;;14.47;;
52586;SDS011;38480;52.724;6.436;2023-05-10T02:38:31;28.07;;;14.43;;
52586;SDS011;38480;52.724;6.436;2023-05-10T02:40:59;41.57;;;16.47;;
52586;SDS011;38480;52.724;6.436;2023-05-10T02:43:25;36.23;;;16.23;;
52586;SDS011;38480;52.724;6.436;2023-05-10T02:45:51;28.27;;;13.77;;
52586;SDS011;38480;52.724;6.436;2023-05-10T02:48:17;39.43;;;16.17;;
52586;SDS011;38480;52.724;6.436;2023-05-10T02:50:44;40.80;;;17.30;;
52586;SDS011;38480;52.724;6.436;2023-05-10T02:53:11;23.83;;;14.47;;
52586;SDS011;38480;52.724;6.436;2023-05-10T02:55:38;40.97;;;16.47;;
52586;SDS011;38480;52.724;6.436;2023-05-10T02:58:04;42.00;;;17.17;;
52586;SDS011;38480;52.724;6.436;2023-05-10T03:00:30;26.10;;;14.10;;
52586;SDS011;38480;52.724;6.436;2023-05-10T03:02:57;35.30;;;16.00;;
52586;SDS011;38480;52.724;6.436;2023-05-10T03:05:23;51.23;;;19.13;;
52586;SDS011;38480;52.724;6.436;2023-05-10T03:07:49;40.67;;;17.27;;
52586;SDS011;38480;52.724;6.436;2023-05-10T03:10:16;32.27;;;16.20;;
52586;SDS011;38480;52.724;6.436;2023-05-10T03:18:06;24.40;;;14.67;;
52586;SDS011;38480;52.724;6.436;2023-05-10T03:20:43;34.50;;;16.00;;
52586;SDS011;38480;52.724;6.436;2023-05-10T03:23:13;37.57;;;18.03;;
52586;SDS011;38480;52.724;6.436;2023-05-10T03:25:46;40.70;;;16.93;;
52586;SDS011;38480;52.724;6.436;2023-05-10T03:28:14;29.60;;;14.90;;
52586;SDS011;38480;52.724;6.436;2023-05-10T03:30:41;39.57;;;17.27;;
52586;SDS011;38480;52.724;6.436;2023-05-10T03:33:08;44.07;;;18.93;;
52586;SDS011;38480;52.724;6.436;2023-05-10T03:35:34;36.50;;;16.70;;
52586;SDS011;38480;52.724;6.436;2023-05-10T03:38:00;45.33;;;18.80;;
52586;SDS011;38480;52.724;6.436;2023-05-10T03:40:26;32.27;;;16.13;;
52586;SDS011;38480;52.724;6.436;2023-05-10T03:42:54;40.40;;;18.20;;
52586;SDS011;38480;52.724;6.436;2023-05-10T03:45:20;46.07;;;18.63;;
52586;SDS011;38480;52.724;6.436;2023-05-10T03:47:47;33.63;;;17.20;;
52586;SDS011;38480;52.724;6.436;2023-05-10T03:50:13;36.73;;;17.33;;
52586;SDS011;38480;52.724;6.436;2023-05-10T03:52:39;34.73;;;18.23;;
52586;SDS011;38480;52.724;6.436;2023-05-10T03:55:05;47.03;;;20.30;;
52586;SDS011;38480;52.724;6.436;2023-05-10T03:57:31;46.83;;;20.47;;
52586;SDS011;38480;52.724;6.436;2023-05-10T03:59:57;28.67;;;17.43;;
52586;SDS011;38480;52.724;6.436;2023-05-10T04:02:23;34.83;;;18.97;;
52586;SDS011;38480;52.724;6.436;2023-05-10T04:04:49;36.57;;;17.77;;
52586;SDS011;38480;52.724;6.436;2023-05-10T04:07:15;37.10;;;18.33;;
52586;SDS011;38480;52.724;6.436;2023-05-10T04:09:41;34.37;;;17.67;;
52586;SDS011;38480;52.724;6.436;2023-05-10T04:12:07;31.67;;;16.57;;
52586;SDS011;38480;52.724;6.436;2023-05-10T04:14:34;33.03;;;17.10;;
52586;SDS011;38480;52.724;6.436;2023-05-10T04:17:00;29.90;;;16.23;;
52586;SDS011;38480;52.724;6.436;2023-05-10T04:19:32;31.30;;;16.07;;
52586;SDS011;38480;52.724;6.436;2023-05-10T04:21:58;24.87;;;14.40;;
52586;SDS011;38480;52.724;6.436;2023-05-10T04:24:24;47.27;;;18.53;;
52586;SDS011;38480;52.724;6.436;2023-05-10T04:26:50;33.70;;;16.27;;
52586;SDS011;38480;52.724;6.436;2023-05-10T04:29:17;31.17;;;14.70;;
52586;SDS011;38480;52.724;6.436;2023-05-10T04:31:43;32.37;;;15.40;;
52586;SDS011;38480;52.724;6.436;2023-05-10T04:34:09;23.87;;;14.10;;
52586;SDS011;38480;52.724;6.436;2023-05-10T04:36:35;25.40;;;13.10;;
52586;SDS011;38480;52.724;6.436;2023-05-10T04:39:02;34.53;;;15.17;;
52586;SDS011;38480;52.724;6.436;2023-05-10T04:41:28;34.47;;;15.63;;
52586;SDS011;38480;52.724;6.436;2023-05-10T04:43:54;23.70;;;13.60;;
52586;SDS011;38480;52.724;6.436;2023-05-10T04:46:20;27.77;;;13.97;;
52586;SDS011;38480;52.724;6.436;2023-05-10T04:48:46;21.43;;;12.40;;
52586;SDS011;38480;52.724;6.436;2023-05-10T04:51:12;25.87;;;13.53;;
52586;SDS011;38480;52.724;6.436;2023-05-10T04:53:38;28.37;;;14.70;;
52586;SDS011;38480;52.724;6.436;2023-05-10T04:56:05;36.60;;;16.03;;
52586;SDS011;38480;52.724;6.436;2023-05-10T04:58:31;43.03;;;16.90;;
52586;SDS011;38480;52.724;6.436;2023-05-10T05:00:57;28.63;;;15.13;;
52586;SDS011;38480;52.724;6.436;2023-05-10T05:03:23;43.47;;;16.70;;
52586;SDS011;38480;52.724;6.436;2023-05-10T05:05:49;33.43;;;15.27;;
52586;SDS011;38480;52.724;6.436;2023-05-10T05:08:15;27.40;;;13.63;;
52586;SDS011;38480;52.724;6.436;2023-05-10T05:10:41;32.13;;;14.20;;
52586;SDS011;38480;52.724;6.436;2023-05-10T05:13:07;45.20;;;16.40;;
52586;SDS011;38480;52.724;6.436;2023-05-10T05:15:33;31.37;;;14.57;;
52586;SDS011;38480;52.724;6.436;2023-05-10T05:17:59;30.43;;;13.43;;
52586;SDS011;38480;52.724;6.436;2023-05-10T05:20:25;35.80;;;15.00;;
52586;SDS011;38480;52.724;6.436;2023-05-10T05:22:51;23.20;;;13.03;;
52586;SDS011;38480;52.724;6.436;2023-05-10T05:25:17;27.17;;;14.17;;
52586;SDS011;38480;52.724;6.436;2023-05-10T05:27:43;32.57;;;15.37;;
52586;SDS011;38480;52.724;6.436;2023-05-10T05:30:09;41.37;;;16.33;;
52586;SDS011;38480;52.724;6.436;2023-05-10T05:32:36;28.60;;;14.00;;
52586;SDS011;38480;52.724;6.436;2023-05-10T05:35:02;25.17;;;13.80;;
52586;SDS011;38480;52.724;6.436;2023-05-10T05:37:28;32.47;;;14.73;;
52586;SDS011;38480;52.724;6.436;2023-05-10T05:39:54;24.60;;;13.60;;
52586;SDS011;38480;52.724;6.436;2023-05-10T05:42:20;36.43;;;16.17;;
52586;SDS011;38480;52.724;6.436;2023-05-10T05:44:46;36.80;;;15.97;;
52586;SDS011;38480;52.724;6.436;2023-05-10T05:47:12;49.43;;;17.87;;
52586;SDS011;38480;52.724;6.436;2023-05-10T05:49:38;30.67;;;14.03;;
52586;SDS011;38480;52.724;6.436;2023-05-10T05:52:04;43.97;;;17.03;;
52586;SDS011;38480;52.724;6.436;2023-05-10T05:54:30;33.03;;;15.77;;
52586;SDS011;38480;52.724;6.436;2023-05-10T05:56:57;37.23;;;15.93;;
52586;SDS011;38480;52.724;6.436;2023-05-10T05:59:23;77.40;;;23.77;;
52586;SDS011;38480;52.724;6.436;2023-05-10T06:01:49;39.80;;;15.50;;
52586;SDS011;38480;52.724;6.436;2023-05-10T06:04:16;33.63;;;14.27;;
52586;SDS011;38480;52.724;6.436;2023-05-10T06:06:42;30.87;;;13.20;;
52586;SDS011;38480;52.724;6.436;2023-05-10T06:09:09;27.97;;;14.00;;
52586;SDS011;38480;52.724;6.436;2023-05-10T06:11:35;28.17;;;12.90;;
52586;SDS011;38480;52.724;6.436;2023-05-10T06:14:01;38.63;;;15.43;;
52586;SDS011;38480;52.724;6.436;2023-05-10T06:16:29;37.97;;;14.93;;
52586;SDS011;38480;52.724;6.436;2023-05-10T06:18:55;33.87;;;15.73;;
52586;SDS011;38480;52.724;6.436;2023-05-10T06:21:21;39.63;;;14.80;;
52586;SDS011;38480;52.724;6.436;2023-05-10T06:23:47;33.57;;;14.27;;
52586;SDS011;38480;52.724;6.436;2023-05-10T06:26:13;35.93;;;14.93;;
52586;SDS011;38480;52.724;6.436;2023-05-10T06:28:39;34.73;;;14.37;;
52586;SDS011;38480;52.724;6.436;2023-05-10T06:31:06;37.10;;;14.83;;
52586;SDS011;38480;52.724;6.436;2023-05-10T06:33:32;34.87;;;13.43;;
52586;SDS011;38480;52.724;6.436;2023-05-10T06:35:58;36.50;;;14.30;;
52586;SDS011;38480;52.724;6.436;2023-05-10T06:38:24;39.33;;;14.83;;
52586;SDS011;38480;52.724;6.436;2023-05-10T06:40:50;35.07;;;14.97;;
52586;SDS011;38480;52.724;6.436;2023-05-10T06:43:16;33.37;;;14.43;;
52586;SDS011;38480;52.724;6.436;2023-05-10T06:45:43;45.07;;;15.30;;
52586;SDS011;38480;52.724;6.436;2023-05-10T06:48:09;30.53;;;13.20;;
52586;SDS011;38480;52.724;6.436;2023-05-10T06:50:35;36.10;;;13.83;;
52586;SDS011;38480;52.724;6.436;2023-05-10T06:53:01;28.90;;;11.63;;
52586;SDS011;38480;52.724;6.436;2023-05-10T06:55:27;20.93;;;9.73;;
52586;SDS011;38480;52.724;6.436;2023-05-10T06:57:54;19.77;;;10.07;;
52586;SDS011;38480;52.724;6.436;2023-05-10T07:00:20;17.20;;;8.87;;
52586;SDS011;38480;52.724;6.436;2023-05-10T07:02:46;32.83;;;12.07;;
52586;SDS011;38480;52.724;6.436;2023-05-10T07:05:12;19.43;;;9.93;;
52586;SDS011;38480;52.724;6.436;2023-05-10T07:07:39;19.93;;;9.27;;
52586;SDS011;38480;52.724;6.436;2023-05-10T07:10:05;23.00;;;10.03;;
52586;SDS011;38480;52.724;6.436;2023-05-10T07:12:32;27.17;;;9.97;;
52586;SDS011;38480;52.724;6.436;2023-05-10T07:14:58;16.07;;;9.07;;
52586;SDS011;38480;52.724;6.436;2023-05-10T07:17:24;21.63;;;10.23;;
52586;SDS011;38480;52.724;6.436;2023-05-10T07:19:50;17.30;;;9.90;;
52586;SDS011;38480;52.724;6.436;2023-05-10T07:22:16;25.17;;;10.30;;
52586;SDS011;38480;52.724;6.436;2023-05-10T07:24:42;16.57;;;8.60;;
52586;SDS011;38480;52.724;6.436;2023-05-10T07:27:08;23.33;;;9.67;;
52586;SDS011;38480;52.724;6.436;2023-05-10T07:29:35;22.40;;;9.80;;
52586;SDS011;38480;52.724;6.436;2023-05-10T07:32:01;14.73;;;8.43;;
52586;SDS011;38480;52.724;6.436;2023-05-10T07:34:27;19.07;;;9.93;;
52586;SDS011;38480;52.724;6.436;2023-05-10T07:36:55;20.97;;;9.87;;
52586;SDS011;38480;52.724;6.436;2023-05-10T07:39:21;20.97;;;9.17;;
52586;SDS011;38480;52.724;6.436;2023-05-10T07:41:47;14.60;;;8.57;;
52586;SDS011;38480;52.724;6.436;2023-05-10T07:44:13;26.10;;;9.40;;
52586;SDS011;38480;52.724;6.436;2023-05-10T07:46:39;17.30;;;8.10;;
52586;SDS011;38480;52.724;6.436;2023-05-10T07:49:05;18.23;;;8.13;;
52586;SDS011;38480;52.724;6.436;2023-05-10T07:51:31;14.90;;;7.13;;
52586;SDS011;38480;52.724;6.436;2023-05-10T07:53:57;12.43;;;6.20;;
52586;SDS011;38480;52.724;6.436;2023-05-10T07:56:24;13.00;;;6.73;;
52586;SDS011;38480;52.724;6.436;2023-05-10T07:58:52;12.90;;;6.37;;
52586;SDS011;38480;52.724;6.436;2023-05-10T08:01:18;11.50;;;5.77;;
52586;SDS011;38480;52.724;6.436;2023-05-10T08:03:44;8.83;;;5.07;;
52586;SDS011;38480;52.724;6.436;2023-05-10T08:06:10;9.37;;;4.83;;
52586;SDS011;38480;52.724;6.436;2023-05-10T08:08:37;7.13;;;4.00;;
52586;SDS011;38480;52.724;6.436;2023-05-10T08:11:03;7.03;;;4.53;;
52586;SDS011;38480;52.724;6.436;2023-05-10T08:13:29;7.43;;;4.30;;
52586;SDS011;38480;52.724;6.436;2023-05-10T08:15:56;6.67;;;3.40;;
52586;SDS011;38480;52.724;6.436;2023-05-10T08:18:22;5.70;;;3.33;;
52586;SDS011;38480;52.724;6.436;2023-05-10T08:20:48;7.30;;;4.03;;
52586;SDS011;38480;52.724;6.436;2023-05-10T08:23:14;7.50;;;3.87;;
52586;SDS011;38480;52.724;6.436;2023-05-10T08:25:40;5.63;;;3.57;;
52586;SDS011;38480;52.724;6.436;2023-05-10T08:28:06;5.03;;;3.17;;
52586;SDS011;38480;52.724;6.436;2023-05-10T08:30:32;7.37;;;3.67;;
52586;SDS011;38480;52.724;6.436;2023-05-10T08:32:58;8.43;;;4.00;;
52586;SDS011;38480;52.724;6.436;2023-05-10T08:35:24;7.40;;;3.87;;
52586;SDS011;38480;52.724;6.436;2023-05-10T08:37:51;5.90;;;3.77;;
52586;SDS011;38480;52.724;6.436;2023-05-10T08:40:17;5.23;;;3.57;;
52586;SDS011;38480;52.724;6.436;2023-05-10T08:42:47;6.47;;;4.30;;
52586;SDS011;38480;52.724;6.436;2023-05-10T08:45:16;5.57;;;4.60;;
52586;SDS011;38480;52.724;6.436;2023-05-10T08:47:44;5.20;;;4.27;;
52586;SDS011;38480;52.724;6.436;2023-05-10T08:50:10;7.90;;;4.70;;
52586;SDS011;38480;52.724;6.436;2023-05-10T08:52:38;5.90;;;4.00;;
52586;SDS011;38480;52.724;6.436;2023-05-10T08:55:05;6.37;;;3.80;;
52586;SDS011;38480;52.724;6.436;2023-05-10T08:57:31;4.00;;;3.20;;
52586;SDS011;38480;52.724;6.436;2023-05-10T08:59:57;5.43;;;3.83;;
52586;SDS011;38480;52.724;6.436;2023-05-10T09:02:23;7.80;;;4.80;;
52586;SDS011;38480;52.724;6.436;2023-05-10T09:04:50;6.63;;;4.00;;
52586;SDS011;38480;52.724;6.436;2023-05-10T09:07:16;7.67;;;4.33;;
52586;SDS011;38480;52.724;6.436;2023-05-10T09:09:42;7.10;;;4.93;;
52586;SDS011;38480;52.724;6.436;2023-05-10T09:12:09;7.67;;;4.90;;
52586;SDS011;38480;52.724;6.436;2023-05-10T09:14:36;6.97;;;5.57;;
52586;SDS011;38480;52.724;6.436;2023-05-10T09:17:04;10.67;;;5.63;;
52586;SDS011;38480;52.724;6.436;2023-05-10T09:19:30;7.70;;;5.63;;
52586;SDS011;38480;52.724;6.436;2023-05-10T09:21:56;8.50;;;5.77;;
52586;SDS011;38480;52.724;6.436;2023-05-10T09:24:25;9.30;;;6.30;;
52586;SDS011;38480;52.724;6.436;2023-05-10T09:26:52;11.13;;;6.27;;
52586;SDS011;38480;52.724;6.436;2023-05-10T09:29:18;7.57;;;6.27;;
52586;SDS011;38480;52.724;6.436;2023-05-10T09:31:47;9.27;;;6.47;;
52586;SDS011;38480;52.724;6.436;2023-05-10T09:34:19;8.27;;;6.17;;
52586;SDS011;38480;52.724;6.436;2023-05-10T09:36:55;8.73;;;6.27;;
52586;SDS011;38480;52.724;6.436;2023-05-10T09:39:34;8.07;;;5.90;;
52586;SDS011;38480;52.724;6.436;2023-05-10T09:42:05;10.13;;;8.17;;
52586;SDS011;38480;52.724;6.436;2023-05-10T09:44:32;8.60;;;6.53;;
52586;SDS011;38480;52.724;6.436;2023-05-10T09:46:58;9.73;;;7.67;;
52586;SDS011;38480;52.724;6.436;2023-05-10T09:49:24;9.47;;;7.40;;
52586;SDS011;38480;52.724;6.436;2023-05-10T09:52:03;11.43;;;8.10;;
52586;SDS011;38480;52.724;6.436;2023-05-10T09:54:30;9.60;;;7.13;;
52586;SDS011;38480;52.724;6.436;2023-05-10T09:56:56;9.97;;;8.07;;
52586;SDS011;38480;52.724;6.436;2023-05-10T09:59:24;11.90;;;8.37;;
52586;SDS011;38480;52.724;6.436;2023-05-10T10:01:51;10.23;;;7.77;;
52586;SDS011;38480;52.724;6.436;2023-05-10T10:04:17;9.13;;;8.17;;
52586;SDS011;38480;52.724;6.436;2023-05-10T10:06:43;11.17;;;8.47;;
52586;SDS011;38480;52.724;6.436;2023-05-10T10:09:10;9.97;;;8.23;;
52586;SDS011;38480;52.724;6.436;2023-05-10T10:11:36;10.33;;;8.23;;
52586;SDS011;38480;52.724;6.436;2023-05-10T10:14:03;10.07;;;8.03;;
52586;SDS011;38480;52.724;6.436;2023-05-10T10:16:29;10.03;;;6.97;;
52586;SDS011;38480;52.724;6.436;2023-05-10T10:18:56;10.17;;;7.80;;
52586;SDS011;38480;52.724;6.436;2023-05-10T10:21:22;12.80;;;8.53;;
52586;SDS011;38480;52.724;6.436;2023-05-10T10:23:49;9.60;;;7.57;;
52586;SDS011;38480;52.724;6.436;2023-05-10T10:26:18;10.17;;;7.87;;
52586;SDS011;38480;52.724;6.436;2023-05-10T10:28:48;9.90;;;7.97;;
52586;SDS011;38480;52.724;6.436;2023-05-10T10:34:10;9.77;;;7.30;;
52586;SDS011;38480;52.724;6.436;2023-05-10T10:36:45;9.27;;;7.23;;
52586;SDS011;38480;52.724;6.436;2023-05-10T10:39:11;8.57;;;7.33;;
52586;SDS011;38480;52.724;6.436;2023-05-10T10:41:39;9.67;;;6.67;;
52586;SDS011;38480;52.724;6.436;2023-05-10T10:44:25;11.17;;;7.40;;
52586;SDS011;38480;52.724;6.436;2023-05-10T10:46:58;9.93;;;8.10;;
52586;SDS011;38480;52.724;6.436;2023-05-10T10:54:35;11.10;;;8.10;;
52586;SDS011;38480;52.724;6.436;2023-05-10T10:57:13;8.43;;;7.53;;
52586;SDS011;38480;52.724;6.436;2023-05-10T10:59:43;11.37;;;6.77;;
52586;SDS011;38480;52.724;6.436;2023-05-10T11:02:09;8.67;;;6.53;;
52586;SDS011;38480;52.724;6.436;2023-05-10T11:04:42;8.70;;;6.73;;
52586;SDS011;38480;52.724;6.436;2023-05-10T11:07:17;9.30;;;6.53;;
52586;SDS011;38480;52.724;6.436;2023-05-10T11:09:44;10.27;;;6.93;;
52586;SDS011;38480;52.724;6.436;2023-05-10T11:12:11;8.73;;;7.10;;
52586;SDS011;38480;52.724;6.436;2023-05-10T11:14:37;10.20;;;8.07;;
52586;SDS011;38480;52.724;6.436;2023-05-10T11:17:26;8.93;;;8.00;;
52586;SDS011;38480;52.724;6.436;2023-05-10T11:22:53;10.25;;;8.38;;
52586;SDS011;38480;52.724;6.436;2023-05-10T11:25:26;12.23;;;8.40;;
52586;SDS011;38480;52.724;6.436;2023-05-10T11:27:53;10.70;;;8.03;;
52586;SDS011;38480;52.724;6.436;2023-05-10T11:30:19;11.53;;;8.10;;
52586;SDS011;38480;52.724;6.436;2023-05-10T11:32:45;11.03;;;9.47;;
52586;SDS011;38480;52.724;6.436;2023-05-10T11:35:11;11.63;;;8.90;;
52586;SDS011;38480;52.724;6.436;2023-05-10T11:37:41;12.37;;;8.93;;
52586;SDS011;38480;52.724;6.436;2023-05-10T11:40:09;10.00;;;8.03;;
52586;SDS011;38480;52.724;6.436;2023-05-10T11:42:38;9.50;;;7.33;;
52586;SDS011;38480;52.724;6.436;2023-05-10T11:45:04;9.90;;;8.03;;
52586;SDS011;38480;52.724;6.436;2023-05-10T11:47:31;10.90;;;8.10;;
52586;SDS011;38480;52.724;6.436;2023-05-10T11:49:57;11.20;;;8.80;;
52586;SDS011;38480;52.724;6.436;2023-05-10T11:52:23;11.90;;;9.30;;
52586;SDS011;38480;52.724;6.436;2023-05-10T11:54:53;10.43;;;9.03;;
52586;SDS011;38480;52.724;6.436;2023-05-10T11:57:20;12.00;;;7.50;;
52586;SDS011;38480;52.724;6.436;2023-05-10T11:59:46;11.63;;;8.47;;
52586;SDS011;38480;52.724;6.436;2023-05-10T12:02:15;15.53;;;9.63;;
52586;SDS011;38480;52.724;6.436;2023-05-10T12:04:42;10.67;;;8.10;;
52586;SDS011;38480;52.724;6.436;2023-05-10T12:07:08;8.73;;;7.60;;
52586;SDS011;38480;52.724;6.436;2023-05-10T12:09:34;10.20;;;8.10;;
52586;SDS011;38480;52.724;6.436;2023-05-10T12:12:00;9.30;;;7.33;;
52586;SDS011;38480;52.724;6.436;2023-05-10T12:14:28;10.00;;;8.47;;
52586;SDS011;38480;52.724;6.436;2023-05-10T12:16:58;11.37;;;7.57;;
52586;SDS011;38480;52.724;6.436;2023-05-10T12:19:24;8.77;;;7.13;;
52586;SDS011;38480;52.724;6.436;2023-05-10T12:21:50;11.63;;;8.27;;
52586;SDS011;38480;52.724;6.436;2023-05-10T12:24:16;14.17;;;8.83;;
52586;SDS011;38480;52.724;6.436;2023-05-10T12:26:43;9.93;;;8.10;;
52586;SDS011;38480;52.724;6.436;2023-05-10T12:31:50;11.13;;;8.60;;
52586;SDS011;38480;52.724;6.436;2023-05-10T12:36:52;10.43;;;8.63;;
52586;SDS011;38480;52.724;6.436;2023-05-10T12:39:18;10.73;;;8.70;;
52586;SDS011;38480;52.724;6.436;2023-05-10T12:41:44;9.57;;;7.67;;
52586;SDS011;38480;52.724;6.436;2023-05-10T12:44:10;9.87;;;7.03;;
52586;SDS011;38480;52.724;6.436;2023-05-10T12:46:37;10.90;;;7.87;;
52586;SDS011;38480;52.724;6.436;2023-05-10T12:49:03;11.77;;;8.73;;
52586;SDS011;38480;52.724;6.436;2023-05-10T12:51:29;13.83;;;8.90;;
52586;SDS011;38480;52.724;6.436;2023-05-10T12:53:55;12.67;;;8.53;;
52586;SDS011;38480;52.724;6.436;2023-05-10T12:56:21;10.47;;;7.73;;
52586;SDS011;38480;52.724;6.436;2023-05-10T12:58:48;13.57;;;8.10;;
52586;SDS011;38480;52.724;6.436;2023-05-10T13:01:14;8.43;;;6.97;;
52586;SDS011;38480;52.724;6.436;2023-05-10T13:03:40;10.47;;;7.60;;
52586;SDS011;38480;52.724;6.436;2023-05-10T13:06:08;8.83;;;6.97;;
52586;SDS011;38480;52.724;6.436;2023-05-10T13:08:34;8.57;;;6.07;;
52586;SDS011;38480;52.724;6.436;2023-05-10T13:11:00;8.90;;;6.53;;
52586;SDS011;38480;52.724;6.436;2023-05-10T13:13:27;5.73;;;4.83;;
52586;SDS011;38480;52.724;6.436;2023-05-10T13:15:53;7.20;;;6.20;;
52586;SDS011;38480;52.724;6.436;2023-05-10T13:18:19;9.03;;;6.37;;
52586;SDS011;38480;52.724;6.436;2023-05-10T13:20:45;8.17;;;5.70;;
52586;SDS011;38480;52.724;6.436;2023-05-10T13:23:11;10.47;;;5.97;;
52586;SDS011;38480;52.724;6.436;2023-05-10T13:25:37;6.60;;;5.60;;
52586;SDS011;38480;52.724;6.436;2023-05-10T13:28:04;7.53;;;5.80;;
52586;SDS011;38480;52.724;6.436;2023-05-10T13:30:30;8.43;;;6.60;;
52586;SDS011;38480;52.724;6.436;2023-05-10T13:32:56;7.63;;;6.40;;
52586;SDS011;38480;52.724;6.436;2023-05-10T13:35:22;7.63;;;6.77;;
52586;SDS011;38480;52.724;6.436;2023-05-10T13:37:48;8.87;;;7.07;;
52586;SDS011;38480;52.724;6.436;2023-05-10T13:40:14;9.27;;;7.23;;
52586;SDS011;38480;52.724;6.436;2023-05-10T13:42:40;9.43;;;7.20;;
52586;SDS011;38480;52.724;6.436;2023-05-10T13:45:07;11.20;;;7.07;;
52586;SDS011;38480;52.724;6.436;2023-05-10T13:47:33;10.33;;;7.63;;
52586;SDS011;38480;52.724;6.436;2023-05-10T13:49:59;8.53;;;6.10;;
52586;SDS011;38480;52.724;6.436;2023-05-10T13:52:25;7.40;;;5.77;;
52586;SDS011;38480;52.724;6.436;2023-05-10T13:54:52;9.60;;;6.73;;
52586;SDS011;38480;52.724;6.436;2023-05-10T13:57:20;7.93;;;7.00;;
52586;SDS011;38480;52.724;6.436;2023-05-10T13:59:46;9.57;;;7.07;;
52586;SDS011;38480;52.724;6.436;2023-05-10T14:02:13;13.83;;;8.17;;
52586;SDS011;38480;52.724;6.436;2023-05-10T14:04:39;10.83;;;6.87;;
52586;SDS011;38480;52.724;6.436;2023-05-10T14:07:05;8.27;;;6.40;;
52586;SDS011;38480;52.724;6.436;2023-05-10T14:09:31;8.67;;;6.73;;
52586;SDS011;38480;52.724;6.436;2023-05-10T14:11:57;11.13;;;8.23;;
52586;SDS011;38480;52.724;6.436;2023-05-10T14:14:23;11.27;;;6.83;;
52586;SDS011;38480;52.724;6.436;2023-05-10T14:16:50;11.03;;;7.80;;
52586;SDS011;38480;52.724;6.436;2023-05-10T14:19:16;13.00;;;8.93;;
52586;SDS011;38480;52.724;6.436;2023-05-10T14:21:42;11.07;;;9.03;;
52586;SDS011;38480;52.724;6.436;2023-05-10T14:24:08;10.07;;;8.20;;
52586;SDS011;38480;52.724;6.436;2023-05-10T14:26:35;12.20;;;8.47;;
52586;SDS011;38480;52.724;6.436;2023-05-10T14:29:01;12.33;;;8.50;;
52586;SDS011;38480;52.724;6.436;2023-05-10T14:31:27;12.47;;;8.57;;
52586;SDS011;38480;52.724;6.436;2023-05-10T14:33:55;11.90;;;8.40;;
52586;SDS011;38480;52.724;6.436;2023-05-10T14:36:22;14.93;;;9.20;;
52586;SDS011;38480;52.724;6.436;2023-05-10T14:38:48;11.43;;;8.90;;
52586;SDS011;38480;52.724;6.436;2023-05-10T14:41:15;12.37;;;8.97;;
52586;SDS011;38480;52.724;6.436;2023-05-10T14:43:42;11.70;;;7.77;;
52586;SDS011;38480;52.724;6.436;2023-05-10T14:46:08;12.97;;;8.90;;
52586;SDS011;38480;52.724;6.436;2023-05-10T14:48:34;12.20;;;8.47;;
52586;SDS011;38480;52.724;6.436;2023-05-10T14:51:01;10.70;;;9.00;;
52586;SDS011;38480;52.724;6.436;2023-05-10T14:53:27;10.10;;;8.00;;
52586;SDS011;38480;52.724;6.436;2023-05-10T14:55:53;12.87;;;8.90;;
52586;SDS011;38480;52.724;6.436;2023-05-10T14:58:19;11.80;;;9.77;;
52586;SDS011;38480;52.724;6.436;2023-05-10T15:00:45;12.43;;;9.73;;
52586;SDS011;38480;52.724;6.436;2023-05-10T15:03:11;13.63;;;9.43;;
52586;SDS011;38480;52.724;6.436;2023-05-10T15:05:38;14.00;;;9.93;;